createdAt,value
2018-07-14T00:00:09.708Z,9.50
2018-07-14T00:01:09.692Z,9.70
2018-07-14T00:02:09.679Z,9.60
2018-07-14T00:03:09.666Z,10.40
2018-07-14T00:04:09.655Z,10.10
2018-07-14T00:05:09.647Z,10.60
2018-07-14T00:06:09.632Z,10.10
2018-07-14T00:07:09.624Z,10.10
2018-07-14T00:08:09.607Z,9.90
2018-07-14T00:09:09.597Z,9.90
2018-07-14T00:10:09.586Z,10.40
2018-07-14T00:11:09.569Z,10.60
2018-07-14T00:12:09.557Z,10.50
2018-07-14T00:13:09.546Z,10.80
2018-07-14T00:14:09.536Z,10.90
2018-07-14T00:15:09.536Z,10.50
2018-07-14T00:16:09.515Z,11.00
2018-07-14T00:17:09.502Z,10.80
2018-07-14T00:18:09.489Z,11.30
2018-07-14T00:19:09.476Z,10.70
2018-07-14T00:20:09.469Z,10.80
2018-07-14T00:21:09.451Z,11.40
2018-07-14T00:22:09.442Z,10.40
2018-07-14T00:23:09.429Z,10.50
2018-07-14T00:24:09.418Z,10.70
2018-07-14T00:25:09.408Z,10.40
2018-07-14T00:26:09.391Z,10.80
2018-07-14T00:27:09.380Z,11.50
2018-07-14T00:28:09.369Z,11.30
2018-07-14T00:29:09.357Z,11.40
2018-07-14T00:30:09.374Z,10.10
2018-07-14T00:31:09.343Z,11.90
2018-07-14T00:32:09.319Z,11.00
2018-07-14T00:33:09.308Z,11.50
2018-07-14T00:34:09.298Z,11.30
2018-07-14T00:35:09.293Z,11.80
2018-07-14T00:36:09.277Z,11.60
2018-07-14T00:37:09.265Z,11.40
2018-07-14T00:38:09.243Z,11.30
2018-07-14T00:39:09.232Z,12.30
2018-07-14T00:40:09.256Z,11.80
2018-07-14T00:41:09.209Z,12.10
2018-07-14T00:42:09.197Z,12.00
2018-07-14T00:43:09.185Z,12.50
2018-07-14T00:44:09.177Z,12.10
2018-07-14T00:45:09.164Z,12.00
2018-07-14T00:46:09.155Z,11.60
2018-07-14T00:47:09.136Z,12.40
2018-07-14T00:48:09.124Z,12.60
2018-07-14T00:49:09.114Z,11.90
2018-07-14T00:50:09.100Z,12.70
2018-07-14T00:51:09.093Z,12.50
2018-07-14T00:52:09.076Z,11.90
2018-07-14T00:53:09.062Z,12.30
2018-07-14T00:54:09.052Z,13.30
2018-07-14T00:55:09.040Z,12.80
2018-07-14T00:56:09.029Z,12.00
2018-07-14T00:57:09.013Z,12.40
2018-07-14T00:58:09.007Z,12.50
2018-07-14T00:59:08.992Z,12.50
2018-07-14T01:00:08.977Z,12.80
2018-07-14T01:01:08.968Z,11.50
2018-07-14T01:02:08.953Z,12.30
2018-07-14T01:03:08.944Z,12.80
2018-07-14T01:04:08.928Z,12.60
2018-07-14T01:05:08.916Z,12.90
2018-07-14T01:06:08.904Z,13.30
2018-07-14T01:07:08.896Z,12.80
2018-07-14T01:08:08.888Z,13.90
2018-07-14T01:09:08.865Z,13.30
2018-07-14T01:10:08.853Z,13.20
2018-07-14T01:11:08.840Z,12.30
2018-07-14T01:12:08.826Z,12.60
2018-07-14T01:13:08.816Z,12.80
2018-07-14T01:14:08.929Z,13.50
2018-07-14T01:15:08.795Z,13.40
2018-07-14T01:16:08.786Z,12.90
2018-07-14T01:17:08.767Z,13.80
2018-07-14T01:18:08.754Z,12.80
2018-07-14T01:19:08.743Z,13.00
2018-07-14T01:20:08.731Z,13.00
2018-07-14T01:21:08.715Z,12.70
2018-07-14T01:22:08.853Z,12.60
2018-07-14T01:23:08.692Z,12.60
2018-07-14T01:24:08.698Z,13.00
2018-07-14T01:25:08.671Z,13.10
2018-07-14T01:26:08.658Z,12.90
2018-07-14T01:27:08.643Z,13.00
2018-07-14T01:28:08.778Z,12.80
2018-07-14T01:29:08.618Z,13.20
2018-07-14T01:30:08.605Z,13.10
2018-07-14T01:31:08.598Z,13.70
2018-07-14T01:32:08.580Z,13.10
2018-07-14T01:33:08.569Z,13.30
2018-07-14T01:34:08.605Z,13.20
2018-07-14T01:35:08.546Z,11.80
2018-07-14T01:36:08.527Z,14.10
2018-07-14T01:37:08.515Z,12.90
2018-07-14T01:38:08.556Z,13.20
2018-07-14T01:39:08.493Z,13.10
2018-07-14T01:40:08.477Z,13.00
2018-07-14T01:41:08.466Z,13.10
2018-07-14T01:42:08.452Z,14.20
2018-07-14T01:43:08.445Z,13.50
2018-07-14T01:44:08.476Z,13.10
2018-07-14T01:45:08.415Z,13.00
2018-07-14T01:46:08.399Z,12.80
2018-07-14T01:47:08.388Z,14.20
2018-07-14T01:48:08.377Z,13.90
2018-07-14T01:49:08.364Z,13.70
2018-07-14T01:50:08.354Z,13.20
2018-07-14T01:51:08.336Z,12.20
2018-07-14T01:52:08.323Z,13.10
2018-07-14T01:53:08.318Z,13.40
2018-07-14T01:54:08.309Z,13.60
2018-07-14T01:55:08.288Z,13.20
2018-07-14T01:56:08.277Z,13.30
2018-07-14T01:57:08.261Z,13.20
2018-07-14T01:58:08.250Z,14.30
2018-07-14T01:59:08.239Z,13.20
2018-07-14T02:00:08.228Z,13.90
2018-07-14T02:01:08.215Z,14.10
2018-07-14T02:02:08.199Z,13.90
2018-07-14T02:03:08.188Z,13.80
2018-07-14T02:04:08.177Z,13.90
2018-07-14T02:05:08.167Z,13.60
2018-07-14T02:06:08.145Z,13.70
2018-07-14T02:07:08.139Z,13.80
2018-07-14T02:08:08.120Z,14.00
2018-07-14T02:09:08.108Z,13.30
2018-07-14T02:10:08.098Z,13.80
2018-07-14T02:11:08.088Z,13.90
2018-07-14T02:12:08.070Z,14.20
2018-07-14T02:13:08.065Z,13.80
2018-07-14T02:14:08.046Z,14.20
2018-07-14T02:15:08.028Z,13.80
2018-07-14T02:16:08.018Z,14.20
2018-07-14T02:17:08.008Z,14.50
2018-07-14T02:18:07.989Z,14.80
2018-07-14T02:19:07.981Z,14.40
2018-07-14T02:20:07.969Z,14.40
2018-07-14T02:21:07.950Z,14.50
2018-07-14T02:22:07.939Z,14.70
2018-07-14T02:23:07.927Z,14.30
2018-07-14T02:24:07.913Z,14.30
2018-07-14T02:25:07.897Z,15.30
2018-07-14T02:26:07.886Z,14.80
2018-07-14T02:27:07.873Z,15.30
2018-07-14T02:28:07.859Z,15.00
2018-07-14T02:29:07.848Z,15.10
2018-07-14T02:30:07.837Z,14.40
2018-07-14T02:31:07.821Z,15.10
2018-07-14T02:32:07.807Z,15.70
2018-07-14T02:33:07.799Z,14.90
2018-07-14T02:34:07.786Z,15.50
2018-07-14T02:35:07.773Z,15.20
2018-07-14T02:36:07.757Z,15.20
2018-07-14T02:37:07.747Z,15.30
2018-07-14T02:38:07.732Z,16.10
2018-07-14T02:39:07.721Z,14.60
2018-07-14T02:40:07.708Z,15.80
2018-07-14T02:41:07.696Z,15.80
2018-07-14T02:42:07.678Z,15.10
2018-07-14T02:43:07.664Z,15.10
2018-07-14T02:44:07.662Z,16.20
2018-07-14T02:45:07.638Z,15.50
2018-07-14T02:46:07.627Z,15.70
2018-07-14T02:47:07.665Z,14.10
2018-07-14T02:48:07.597Z,15.30
2018-07-14T02:49:07.610Z,14.80
2018-07-14T02:50:07.573Z,15.10
2018-07-14T02:51:07.622Z,15.10
2018-07-14T02:52:07.552Z,15.80
2018-07-14T02:53:07.635Z,15.80
2018-07-14T02:54:07.518Z,16.30
2018-07-14T02:55:07.507Z,16.70
2018-07-14T02:56:07.491Z,16.50
2018-07-14T02:57:07.485Z,16.50
2018-07-14T02:58:07.470Z,16.20
